Time;durP1;ratioP1;P1;durP2;ratioP2;P2;SDS_P1;SDS_P2;PMS_P1;PMS_P2;Temp;Humidity;BMP_temperature;BMP_pressure;BME280_temperature;BME280_humidity;BME280_pressure;Samples;Min_cycle;Max_cycle;Signal;HPM_P1;HPM_P2
2022/03/11 00:01:24;;;;;;;25.63;23.93;;;;;;;-141.02;100.00;55844.97;5135787;27;20279;-71
2022/03/11 00:03:51;;;;;;;22.90;21.60;;;;;;;-141.02;100.00;55844.97;5135616;27;20231;-71
2022/03/11 00:06:19;;;;;;;23.40;21.93;;;;;;;-141.02;100.00;55844.97;5135786;27;20662;-71
2022/03/11 00:08:45;;;;;;;24.77;23.10;;;;;;;-141.02;100.00;55844.97;5135924;27;20275;-71
2022/03/11 00:11:14;;;;;;;23.60;22.30;;;;;;;-141.02;100.00;55844.97;5136103;27;20329;-71
2022/03/11 00:13:41;;;;;;;23.53;22.23;;;;;;;-141.02;100.00;55844.97;5135519;27;20257;-70
2022/03/11 00:16:08;;;;;;;23.07;21.77;;;;;;;-141.02;100.00;55844.97;5135731;27;20312;-70
2022/03/11 00:18:35;;;;;;;24.47;23.07;;;;;;;-141.02;100.00;55844.97;5135757;27;20193;-71
2022/03/11 00:21:02;;;;;;;24.23;22.83;;;;;;;-141.02;100.00;55844.97;5135358;27;20203;-71
2022/03/11 00:23:29;;;;;;;23.97;22.37;;;;;;;-141.02;100.00;55844.97;5135601;27;20228;-71
2022/03/11 00:25:56;;;;;;;23.83;22.43;;;;;;;-141.02;100.00;55844.97;5135578;27;20196;-71
2022/03/11 00:28:25;;;;;;;25.80;24.13;;;;;;;-141.02;100.00;55844.97;5135777;27;20196;-71
2022/03/11 00:30:52;;;;;;;27.23;25.43;;;;;;;-141.02;100.00;55844.97;5135465;27;20276;-70
2022/03/11 00:33:19;;;;;;;27.07;25.07;;;;;;;-141.02;100.00;55844.97;5135416;27;20189;-71
2022/03/11 00:35:46;;;;;;;25.73;24.07;;;;;;;-141.02;100.00;55844.97;5135278;27;20307;-71
2022/03/11 00:38:12;;;;;;;28.23;25.67;;;;;;;-141.02;100.00;55844.97;5135078;27;20318;-70
2022/03/11 00:40:39;;;;;;;27.87;25.97;;;;;;;-141.02;100.00;55844.97;5135258;27;20275;-73
2022/03/11 00:43:06;;;;;;;25.70;24.10;;;;;;;-141.02;100.00;55844.97;5135237;27;20243;-70
2022/03/11 00:45:35;;;;;;;23.33;21.93;;;;;;;-141.02;100.00;55844.97;5135204;27;20291;-70
2022/03/11 00:48:02;;;;;;;24.70;23.00;;;;;;;-141.02;100.00;55844.97;5134831;27;20189;-70
2022/03/11 00:50:29;;;;;;;24.13;22.73;;;;;;;-141.02;100.00;55844.97;5135069;27;20257;-70
2022/03/11 00:52:56;;;;;;;23.63;22.27;;;;;;;-141.02;100.00;55844.97;5134734;27;20772;-70
2022/03/11 00:55:23;;;;;;;24.57;22.87;;;;;;;-141.02;100.00;55844.97;5134568;27;20562;-71
2022/03/11 00:57:50;;;;;;;24.33;22.90;;;;;;;-141.02;100.00;55844.97;5134559;27;20192;-70
2022/03/11 01:00:18;;;;;;;24.47;22.93;;;;;;;-141.02;100.00;55844.97;5134600;27;20228;-70
2022/03/11 01:02:46;;;;;;;22.40;21.10;;;;;;;-141.02;100.00;55844.97;5134799;27;20199;-71
2022/03/11 01:05:13;;;;;;;29.37;27.30;;;;;;;-141.02;100.00;55844.97;5134452;27;20674;-71
2022/03/11 01:07:40;;;;;;;23.30;21.90;;;;;;;-141.02;100.00;55844.97;5134704;27;20279;-71
2022/03/11 01:10:09;;;;;;;22.93;21.53;;;;;;;-141.02;100.00;55844.97;5134872;27;20253;-72
2022/03/11 01:12:37;;;;;;;24.70;23.13;;;;;;;-141.02;100.00;55844.97;5134649;27;20279;-70
2022/03/11 01:15:05;;;;;;;23.17;21.87;;;;;;;-141.02;100.00;55844.97;5134888;27;20264;-71
2022/03/11 01:17:32;;;;;;;22.60;21.30;;;;;;;-141.02;100.00;55844.97;5134323;27;20259;-71
2022/03/11 01:20:01;;;;;;;23.37;22.07;;;;;;;-141.02;100.00;55844.97;5133319;27;20670;-71
2022/03/11 01:22:28;;;;;;;22.60;21.30;;;;;;;-141.02;100.00;55844.97;5134481;27;20220;-71
2022/03/11 01:24:54;;;;;;;24.00;22.57;;;;;;;-141.02;100.00;55844.97;5134384;27;20189;-71
2022/03/11 01:27:21;;;;;;;22.77;21.37;;;;;;;-141.02;100.00;55844.97;5134375;27;20253;-71
2022/03/11 01:29:48;;;;;;;23.17;21.87;;;;;;;-141.02;100.00;55844.97;5134525;27;20220;-71
2022/03/11 01:32:16;;;;;;;24.00;22.50;;;;;;;-141.02;100.00;55844.97;5133958;27;20201;-71
2022/03/11 01:34:43;;;;;;;23.90;22.60;;;;;;;-141.02;100.00;55844.97;5134246;27;20275;-70
2022/03/11 01:37:11;;;;;;;23.73;22.43;;;;;;;-141.02;100.00;55844.97;5133764;27;20314;-71
2022/03/11 01:39:41;;;;;;;23.77;22.47;;;;;;;-141.02;100.00;55844.97;5133902;27;20276;-71
2022/03/11 01:42:08;;;;;;;22.93;21.63;;;;;;;-141.02;100.00;55844.97;5134106;27;20279;-71
2022/03/11 01:44:35;;;;;;;25.53;24.13;;;;;;;-141.02;100.00;55844.97;5134634;27;20196;-71
2022/03/11 01:47:03;;;;;;;23.57;22.27;;;;;;;-141.02;100.00;55844.97;5134618;27;20665;-71
2022/03/11 01:49:30;;;;;;;23.70;22.40;;;;;;;-141.02;100.00;55844.97;5133625;27;20239;-71
2022/03/11 01:51:57;;;;;;;23.33;22.03;;;;;;;-141.02;100.00;55844.97;5133819;27;20283;-71
2022/03/11 01:54:25;;;;;;;22.50;21.30;;;;;;;-141.02;100.00;55844.97;5133574;27;20195;-71
2022/03/11 01:56:52;;;;;;;22.67;21.17;;;;;;;-141.02;100.00;55844.97;5133418;27;20804;-71
2022/03/11 01:59:19;;;;;;;22.10;20.90;;;;;;;-141.02;100.00;55844.97;5133803;27;20223;-71
2022/03/11 02:01:46;;;;;;;22.47;20.97;;;;;;;-141.02;100.00;55844.97;5133723;27;20224;-71
2022/03/11 02:04:13;;;;;;;22.73;21.43;;;;;;;-141.02;100.00;55844.97;5134251;27;20275;-71
2022/03/11 02:06:40;;;;;;;22.40;21.10;;;;;;;-141.02;100.00;55844.97;5133825;27;20234;-71
2022/03/11 02:09:07;;;;;;;21.33;20.13;;;;;;;-141.02;100.00;55844.97;5133558;27;20197;-71
2022/03/11 02:11:36;;;;;;;23.17;20.80;;;;;;;-141.02;100.00;55844.97;5133388;27;20658;-73
2022/03/11 02:14:03;;;;;;;22.07;20.87;;;;;;;-141.02;100.00;55844.97;5133191;27;20193;-72
2022/03/11 02:16:31;;;;;;;21.93;20.73;;;;;;;-141.02;100.00;55844.97;5133360;27;20666;-71
2022/03/11 02:18:59;;;;;;;21.10;20.00;;;;;;;-141.02;100.00;55844.97;5133149;27;20227;-71
2022/03/11 02:21:27;;;;;;;21.67;20.47;;;;;;;-141.02;100.00;55844.97;5133158;27;20232;-71
2022/03/11 02:23:58;;;;;;;21.97;20.77;;;;;;;-141.02;100.00;55844.97;5133341;27;20224;-71
2022/03/11 02:26:26;;;;;;;21.53;20.33;;;;;;;-141.02;100.00;55844.97;5133106;27;20206;-71
2022/03/11 02:28:55;;;;;;;23.03;21.73;;;;;;;-141.02;100.00;55844.97;5133325;27;20275;-71
2022/03/11 02:31:24;;;;;;;22.10;20.90;;;;;;;-141.02;100.00;55844.97;5132703;27;20290;-71
2022/03/11 02:33:51;;;;;;;22.87;21.57;;;;;;;-141.02;100.00;55844.97;5134160;27;20196;-71
2022/03/11 02:36:18;;;;;;;22.73;21.53;;;;;;;-141.02;100.00;55844.97;5132868;28;20262;-72
2022/03/11 02:38:46;;;;;;;22.13;20.83;;;;;;;-141.02;100.00;55844.97;5132849;28;20220;-71
2022/03/11 02:41:15;;;;;;;21.63;20.43;;;;;;;-141.02;100.00;55844.97;5133112;28;20337;-71
2022/03/11 02:43:42;;;;;;;21.77;20.57;;;;;;;-141.02;100.00;55844.97;5133245;28;20232;-71
2022/03/11 02:46:10;;;;;;;22.27;21.00;;;;;;;-141.02;100.00;55844.97;5132901;28;20249;-72
2022/03/11 02:48:37;;;;;;;21.67;20.47;;;;;;;-141.02;100.00;55844.97;5133177;27;20192;-71
2022/03/11 02:51:04;;;;;;;22.60;21.20;;;;;;;-141.02;100.00;55844.97;5132830;27;20217;-73
2022/03/11 02:53:32;;;;;;;22.30;21.00;;;;;;;-141.02;100.00;55844.97;5132925;28;20200;-72
2022/03/11 02:55:59;;;;;;;20.93;19.73;;;;;;;-141.02;100.00;55844.97;5133033;28;20188;-72
2022/03/11 02:58:27;;;;;;;31.13;20.63;;;;;;;-141.02;100.00;55844.97;5132744;28;20204;-72
2022/03/11 03:00:54;;;;;;;19.53;18.43;;;;;;;-141.02;100.00;55844.97;5133070;28;20192;-72
2022/03/11 03:03:21;;;;;;;21.87;20.37;;;;;;;-141.02;100.00;55844.97;5132674;28;20655;-72
2022/03/11 03:05:48;;;;;;;22.50;20.90;;;;;;;-141.02;100.00;55844.97;5132931;28;20673;-72
2022/03/11 03:08:15;;;;;;;21.67;20.47;;;;;;;-141.02;100.00;55844.97;5132973;28;20674;-72
2022/03/11 03:10:42;;;;;;;23.17;21.77;;;;;;;-141.02;100.00;55844.97;5132610;28;20288;-72
2022/03/11 03:13:09;;;;;;;21.97;20.77;;;;;;;-141.02;100.00;55844.97;5132673;28;20283;-72
2022/03/11 03:15:38;;;;;;;23.83;22.27;;;;;;;-141.02;100.00;55844.97;5132960;28;20189;-72
2022/03/11 03:18:05;;;;;;;21.67;20.47;;;;;;;-141.02;100.00;55844.97;5132493;28;20773;-72
2022/03/11 03:20:32;;;;;;;21.63;20.43;;;;;;;-141.02;100.00;55844.97;5132908;28;20275;-72
2022/03/11 03:22:59;;;;;;;22.63;21.13;;;;;;;-141.02;100.00;55844.97;5133391;28;20235;-73
2022/03/11 03:25:26;;;;;;;23.27;21.87;;;;;;;-141.02;100.00;55844.97;5132891;27;20280;-74
2022/03/11 03:27:53;;;;;;;22.37;21.07;;;;;;;-141.02;100.00;55844.97;5133004;28;20229;-73
2022/03/11 03:30:20;;;;;;;24.23;22.63;;;;;;;-141.02;100.00;55844.97;5132764;28;20280;-72
2022/03/11 03:32:48;;;;;;;21.93;20.57;;;;;;;-141.02;100.00;55844.97;5132725;28;20193;-72
2022/03/11 03:35:15;;;;;;;24.77;23.20;;;;;;;-141.02;100.00;55844.97;5132737;27;20617;-73
2022/03/11 03:37:43;;;;;;;24.17;22.47;;;;;;;-141.02;100.00;55844.97;5132393;28;20333;-72
2022/03/11 03:40:11;;;;;;;23.87;22.57;;;;;;;-141.02;100.00;55844.97;5132710;27;20591;-72
2022/03/11 03:42:38;;;;;;;24.43;22.10;;;;;;;-141.02;100.00;55844.97;5134749;27;20233;-72
2022/03/11 03:45:07;;;;;;;21.73;20.53;;;;;;;-141.02;100.00;55844.97;5136067;27;20197;-72
2022/03/11 03:47:34;;;;;;;23.83;22.53;;;;;;;-141.02;100.00;55844.97;5136260;27;20582;-72
2022/03/11 03:50:02;;;;;;;20.70;19.40;;;;;;;-141.02;100.00;55844.97;5136329;27;20249;-72
2022/03/11 03:52:29;;;;;;;26.73;25.43;;;;;;;-141.02;100.00;55844.97;5136260;27;20276;-72
2022/03/11 03:54:57;;;;;;;27.30;25.80;;;;;;;-141.02;100.00;55844.97;5135881;27;20241;-72
2022/03/11 03:57:25;;;;;;;26.17;24.87;;;;;;;-141.02;100.00;55844.97;5136056;27;20224;-72
2022/03/11 03:59:52;;;;;;;23.97;22.70;;;;;;;-141.02;100.00;55844.97;5136165;27;20283;-72
2022/03/11 04:02:19;;;;;;;26.00;24.80;;;;;;;-141.02;100.00;55844.97;5136016;27;20226;-72
2022/03/11 04:04:46;;;;;;;26.20;25.00;;;;;;;-141.02;100.00;55844.97;5135955;27;20200;-72
2022/03/11 04:07:14;;;;;;;26.40;24.53;;;;;;;-141.02;100.00;55844.97;5136175;27;20249;-72
2022/03/11 04:09:41;;;;;;;22.53;21.13;;;;;;;-141.02;100.00;55844.97;5135886;27;20687;-72
2022/03/11 04:12:10;;;;;;;25.37;24.07;;;;;;;-141.02;100.00;55844.97;5135590;27;20679;-72
2022/03/11 04:14:37;;;;;;;26.70;25.40;;;;;;;-141.02;100.00;55844.97;5135532;27;20726;-72
2022/03/11 04:17:05;;;;;;;24.67;23.53;;;;;;;-141.02;100.00;55844.97;5135669;27;20284;-72
2022/03/11 04:19:32;;;;;;;21.50;20.50;;;;;;;-141.02;100.00;55844.97;5135703;27;20651;-72
2022/03/11 04:21:59;;;;;;;21.80;20.70;;;;;;;-141.02;100.00;55844.97;5135673;27;20197;-72
2022/03/11 04:24:27;;;;;;;26.70;25.40;;;;;;;-141.02;100.00;55844.97;5135310;27;20196;-72
2022/03/11 04:26:54;;;;;;;27.60;25.80;;;;;;;-141.02;100.00;55844.97;5135566;27;20277;-73
2022/03/11 04:29:24;;;;;;;26.10;24.80;;;;;;;-141.02;100.00;55844.97;5135231;27;20563;-72
2022/03/11 04:31:51;;;;;;;25.23;24.03;;;;;;;-141.02;100.00;55844.97;5136098;27;20185;-72
2022/03/11 04:34:18;;;;;;;24.27;23.07;;;;;;;-141.02;100.00;55844.97;5135150;27;20228;-72
2022/03/11 04:36:45;;;;;;;24.93;23.73;;;;;;;-141.02;100.00;55844.97;5135344;27;20196;-72
2022/03/11 04:39:14;;;;;;;21.83;20.43;;;;;;;-141.02;100.00;55844.97;5135067;27;20653;-72
2022/03/11 04:41:44;;;;;;;21.33;20.03;;;;;;;-141.02;100.00;55844.97;5135348;27;20227;-72
2022/03/11 04:44:11;;;;;;;23.70;22.50;;;;;;;-141.02;100.00;55844.97;5135284;27;20200;-72
2022/03/11 04:46:38;;;;;;;25.20;23.87;;;;;;;-141.02;100.00;55844.97;5135265;27;20300;-72
2022/03/11 04:49:05;;;;;;;22.43;21.23;;;;;;;-141.02;100.00;55844.97;5135149;27;20249;-72
2022/03/11 04:51:32;;;;;;;22.50;21.40;;;;;;;-141.02;100.00;55844.97;5135075;27;20281;-72
2022/03/11 04:54:00;;;;;;;24.40;22.93;;;;;;;-141.02;100.00;55844.97;5134902;27;20224;-72
2022/03/11 04:56:27;;;;;;;21.87;20.47;;;;;;;-141.02;100.00;55844.97;5134693;27;20199;-72
2022/03/11 04:58:55;;;;;;;22.13;20.93;;;;;;;-141.02;100.00;55844.97;5134623;27;20761;-72
2022/03/11 05:01:22;;;;;;;22.33;20.93;;;;;;;-141.02;100.00;55844.97;5134854;27;20198;-72
2022/03/11 05:03:49;;;;;;;23.77;22.57;;;;;;;-141.02;100.00;55844.97;5135155;27;20192;-72
2022/03/11 05:06:16;;;;;;;24.20;22.83;;;;;;;-141.02;100.00;55844.97;5134522;27;20228;-72
2022/03/11 05:08:44;;;;;;;24.53;23.43;;;;;;;-141.02;100.00;55844.97;5134723;27;20277;-72
2022/03/11 05:11:11;;;;;;;24.20;23.10;;;;;;;-141.02;100.00;55844.97;5134765;27;20196;-72
2022/03/11 05:13:38;;;;;;;23.53;22.43;;;;;;;-141.02;100.00;55844.97;5134636;27;20197;-72
2022/03/11 05:16:07;;;;;;;21.57;20.57;;;;;;;-141.02;100.00;55844.97;5134607;27;20189;-72
2022/03/11 05:18:34;;;;;;;24.50;23.30;;;;;;;-141.02;100.00;55844.97;5134493;27;20266;-72
2022/03/11 05:21:01;;;;;;;21.13;19.93;;;;;;;-141.02;100.00;55844.97;5134498;27;20283;-72
2022/03/11 05:23:28;;;;;;;19.90;18.80;;;;;;;-141.02;100.00;55844.97;5134382;27;20196;-72
2022/03/11 05:25:55;;;;;;;20.03;18.93;;;;;;;-141.02;100.00;55844.97;5134043;27;20654;-72
2022/03/11 05:28:22;;;;;;;19.50;18.40;;;;;;;-141.02;100.00;55844.97;5134365;27;20197;-72
2022/03/11 05:30:49;;;;;;;23.93;22.53;;;;;;;-141.02;100.00;55844.97;5134344;27;20230;-72
2022/03/11 05:33:18;;;;;;;21.13;19.93;;;;;;;-141.02;100.00;55844.97;5134002;27;20232;-73
2022/03/11 05:35:45;;;;;;;23.00;21.70;;;;;;;-141.02;100.00;55844.97;5134163;27;20196;-72
2022/03/11 05:38:12;;;;;;;21.17;20.07;;;;;;;-141.02;100.00;55844.97;5133732;27;20274;-72
2022/03/11 05:40:39;;;;;;;21.10;20.00;;;;;;;-141.02;100.00;55844.97;5134192;27;20201;-72
2022/03/11 05:43:06;;;;;;;20.90;19.80;;;;;;;-141.02;100.00;55844.97;5133728;27;20733;-72
2022/03/11 05:45:33;;;;;;;20.83;19.60;;;;;;;-141.02;100.00;55844.97;5133705;27;20686;-72
2022/03/11 05:48:00;;;;;;;20.57;19.57;;;;;;;-141.02;100.00;55844.97;5133935;27;20232;-72
2022/03/11 05:50:28;;;;;;;21.33;20.13;;;;;;;-141.02;100.00;55844.97;5133930;27;20289;-72
2022/03/11 05:52:55;;;;;;;25.43;24.07;;;;;;;-141.02;100.00;55844.97;5133836;27;20193;-71
2022/03/11 05:55:22;;;;;;;24.97;23.87;;;;;;;-141.02;100.00;55844.97;5133592;27;20283;-71
2022/03/11 05:57:49;;;;;;;27.73;25.87;;;;;;;-141.02;100.00;55844.97;5133707;27;20224;-72
2022/03/11 06:00:17;;;;;;;26.77;24.93;;;;;;;-141.02;100.00;55844.97;5133754;27;20201;-71
2022/03/11 06:02:44;;;;;;;26.40;24.97;;;;;;;-141.02;100.00;55844.97;5133734;27;20249;-71
2022/03/11 06:05:11;;;;;;;26.20;24.83;;;;;;;-141.02;100.00;55844.97;5132831;27;20275;-71
2022/03/11 06:07:40;;;;;;;24.10;22.90;;;;;;;-141.02;100.00;55844.97;5133369;27;20196;-72
2022/03/11 06:10:08;;;;;;;23.87;22.77;;;;;;;-141.02;100.00;55844.97;5133844;27;20622;-72
2022/03/11 06:12:36;;;;;;;27.73;26.13;;;;;;;-141.02;100.00;55844.97;5133533;27;20196;-72
2022/03/11 06:15:06;;;;;;;29.07;26.33;;;;;;;-141.02;100.00;55844.97;5133527;27;20196;-71
2022/03/11 06:17:33;;;;;;;27.67;25.87;;;;;;;-141.02;100.00;55844.97;5133448;27;20315;-72
2022/03/11 06:20:00;;;;;;;24.87;23.47;;;;;;;-141.02;100.00;55844.97;5133428;27;20662;-72
2022/03/11 06:22:27;;;;;;;26.37;24.90;;;;;;;-141.02;100.00;55844.97;5133544;27;20188;-72
2022/03/11 06:24:58;;;;;;;23.43;22.43;;;;;;;-141.02;100.00;55844.97;5133366;27;20628;-72
2022/03/11 06:27:25;;;;;;;24.13;22.80;;;;;;;-141.02;100.00;55844.97;5133443;27;20184;-72
2022/03/11 06:29:53;;;;;;;23.40;22.30;;;;;;;-141.02;100.00;55844.97;5133363;27;20196;-72
2022/03/11 06:32:20;;;;;;;26.50;25.20;;;;;;;-141.02;100.00;55844.97;5133266;27;20564;-72
2022/03/11 06:34:48;;;;;;;23.63;22.57;;;;;;;-141.02;100.00;55844.97;5133246;27;20283;-72
2022/03/11 06:37:15;;;;;;;23.93;22.83;;;;;;;-141.02;100.00;55844.97;5132979;27;20592;-72
2022/03/11 06:39:43;;;;;;;25.00;23.53;;;;;;;-141.02;100.00;55844.97;5133328;27;20635;-71
2022/03/11 06:42:11;;;;;;;27.80;25.97;;;;;;;-141.02;100.00;55844.97;5133246;27;20219;-71
2022/03/11 06:44:38;;;;;;;26.90;25.60;;;;;;;-141.02;100.00;55844.97;5133285;27;20224;-71
2022/03/11 06:47:06;;;;;;;27.03;25.53;;;;;;;-141.02;100.00;55844.97;5133264;28;20232;-71
2022/03/11 06:49:33;;;;;;;28.40;27.00;;;;;;;-141.02;100.00;55844.97;5132868;28;20206;-71
2022/03/11 06:52:00;;;;;;;26.23;24.50;;;;;;;-141.02;100.00;55844.97;5133196;27;20241;-71
2022/03/11 06:54:27;;;;;;;27.93;26.33;;;;;;;-141.02;100.00;55844.97;5132742;28;20662;-71
2022/03/11 06:56:55;;;;;;;23.63;22.53;;;;;;;-141.02;100.00;55844.97;5132767;28;20196;-73
2022/03/11 06:59:23;;;;;;;24.60;23.40;;;;;;;-141.02;100.00;55844.97;5133226;28;20228;-71
2022/03/11 07:01:50;;;;;;;22.70;21.60;;;;;;;-141.02;100.00;55844.97;5133083;27;20208;-72
2022/03/11 07:04:17;;;;;;;26.57;25.07;;;;;;;-141.02;100.00;55844.97;5133060;28;20193;-71
2022/03/11 07:06:44;;;;;;;28.00;26.30;;;;;;;-141.02;100.00;55844.97;5132672;27;20192;-70
2022/03/11 07:09:11;;;;;;;24.43;23.30;;;;;;;-141.02;100.00;55844.97;5132700;28;20709;-71
2022/03/11 07:11:38;;;;;;;24.03;22.73;;;;;;;-141.02;100.00;55844.97;5132947;28;20188;-71
2022/03/11 07:14:05;;;;;;;22.67;21.57;;;;;;;-141.02;100.00;55844.97;5132625;28;20658;-71
2022/03/11 07:16:34;;;;;;;24.60;23.43;;;;;;;-141.02;100.00;55844.97;5132940;27;20197;-71
2022/03/11 07:19:01;;;;;;;24.67;23.47;;;;;;;-141.02;100.00;55844.97;5136903;27;20671;-71
2022/03/11 07:21:28;;;;;;;26.67;25.37;;;;;;;-141.02;100.00;55844.97;5136923;27;20193;-72
2022/03/11 07:23:56;;;;;;;23.57;22.37;;;;;;;-141.02;100.00;55844.97;5136838;27;20192;-71
2022/03/11 07:26:23;;;;;;;25.60;24.00;;;;;;;-141.02;100.00;55844.97;5136766;27;20189;-71
2022/03/11 07:28:51;;;;;;;28.27;26.87;;;;;;;-141.02;100.00;55844.97;5136743;27;20241;-71
2022/03/11 07:31:18;;;;;;;22.50;21.30;;;;;;;-141.02;100.00;55844.97;5136348;27;20658;-70
2022/03/11 07:33:46;;;;;;;21.13;19.93;;;;;;;-141.02;100.00;55844.97;5136418;27;20197;-71
2022/03/11 07:36:13;;;;;;;23.63;22.43;;;;;;;-141.02;100.00;55844.97;5136543;27;20193;-71
2022/03/11 07:38:40;;;;;;;25.70;24.00;;;;;;;-141.02;100.00;55844.97;5136074;27;20275;-71
2022/03/11 07:41:10;;;;;;;28.40;26.47;;;;;;;-141.02;100.00;55844.97;5136160;27;20188;-72
2022/03/11 07:43:41;;;;;;;24.30;22.90;;;;;;;-141.02;100.00;55844.97;5136463;27;20245;-71
2022/03/11 07:46:08;;;;;;;24.43;22.93;;;;;;;-141.02;100.00;55844.97;5136426;27;20189;-71
2022/03/11 07:48:35;;;;;;;26.67;24.53;;;;;;;-141.02;100.00;55844.97;5136346;27;20200;-71
2022/03/11 07:51:04;;;;;;;25.83;24.43;;;;;;;-141.02;100.00;55844.97;5136263;27;20232;-71
2022/03/11 07:53:31;;;;;;;24.70;23.20;;;;;;;-141.02;100.00;55844.97;5136457;27;20193;-70
2022/03/11 07:55:58;;;;;;;28.47;25.87;;;;;;;-141.02;100.00;55844.97;5136178;27;20201;-70
2022/03/11 07:58:25;;;;;;;24.03;22.63;;;;;;;-141.02;100.00;55844.97;5136048;27;20220;-70
2022/03/11 08:00:53;;;;;;;25.00;23.37;;;;;;;-141.02;100.00;55844.97;5135896;27;20241;-70
2022/03/11 08:03:21;;;;;;;26.00;24.10;;;;;;;-141.02;100.00;55844.97;5136097;27;20220;-70
2022/03/11 08:05:49;;;;;;;24.90;23.20;;;;;;;-141.02;100.00;55844.97;5136211;27;20193;-70
2022/03/11 08:08:17;;;;;;;25.47;23.67;;;;;;;-141.02;100.00;55844.97;5136284;27;20196;-70
2022/03/11 08:10:44;;;;;;;25.17;23.67;;;;;;;-141.02;100.00;55844.97;5135935;27;20666;-70
2022/03/11 08:13:11;;;;;;;27.23;25.23;;;;;;;-141.02;100.00;55844.97;5135848;27;20253;-70
2022/03/11 08:15:39;;;;;;;23.17;21.97;;;;;;;-141.02;100.00;55844.97;5135582;27;20193;-71
2022/03/11 08:18:06;;;;;;;23.33;22.13;;;;;;;-141.02;100.00;55844.97;5135401;27;20790;-71
2022/03/11 08:20:32;;;;;;;22.67;21.30;;;;;;;-141.02;100.00;55844.97;5135447;27;20196;-74
2022/03/11 08:22:59;;;;;;;22.47;21.07;;;;;;;-141.02;100.00;55844.97;5135409;27;20228;-71
2022/03/11 08:25:28;;;;;;;26.20;24.00;;;;;;;-141.02;100.00;55844.97;5135642;27;20269;-71
2022/03/11 08:27:56;;;;;;;24.37;22.87;;;;;;;-141.02;100.00;55844.97;5134717;27;20188;-70
2022/03/11 08:30:25;;;;;;;25.43;23.50;;;;;;;-141.02;100.00;55844.97;5135925;27;20217;-71
2022/03/11 08:32:53;;;;;;;25.80;24.00;;;;;;;-141.02;100.00;55844.97;5135214;27;20682;-71
2022/03/11 08:35:21;;;;;;;24.70;23.10;;;;;;;-141.02;100.00;55844.97;5135354;27;20279;-71
2022/03/11 08:37:48;;;;;;;24.53;22.93;;;;;;;-141.02;100.00;55844.97;5135023;27;20652;-71
2022/03/11 08:40:16;;;;;;;24.77;22.97;;;;;;;-141.02;100.00;55844.97;5135022;27;20253;-71
2022/03/11 08:42:45;;;;;;;26.17;24.17;;;;;;;-141.02;100.00;55844.97;5135321;27;20192;-71
2022/03/11 08:45:13;;;;;;;32.33;24.10;;;;;;;-141.02;100.00;55844.97;5135085;27;20212;-71
2022/03/11 08:47:40;;;;;;;24.17;22.47;;;;;;;-141.02;100.00;55844.97;5135230;27;20368;-71
2022/03/11 08:50:07;;;;;;;24.03;22.33;;;;;;;-141.02;100.00;55844.97;5135158;27;20196;-72
2022/03/11 08:52:36;;;;;;;23.40;21.80;;;;;;;-141.02;100.00;55844.97;5134786;27;20192;-71
2022/03/11 08:55:04;;;;;;;24.90;23.30;;;;;;;-141.02;100.00;55844.97;5134813;27;20283;-71
2022/03/11 08:57:31;;;;;;;24.97;23.27;;;;;;;-141.02;100.00;55844.97;5134673;27;20283;-70
2022/03/11 08:59:59;;;;;;;22.37;20.90;;;;;;;-141.02;100.00;55844.97;5134535;27;20220;-70
2022/03/11 09:02:26;;;;;;;21.67;20.33;;;;;;;-141.02;100.00;55844.97;5134757;27;20737;-71
2022/03/11 09:04:53;;;;;;;20.97;19.77;;;;;;;-141.02;100.00;55844.97;5134881;27;20192;-71
2022/03/11 09:07:23;;;;;;;22.20;20.90;;;;;;;-141.02;100.00;55844.97;5134692;27;20248;-71
2022/03/11 09:09:50;;;;;;;26.20;24.60;;;;;;;-141.02;100.00;55844.97;5135018;27;20569;-71
2022/03/11 09:12:17;;;;;;;19.83;18.63;;;;;;;-141.02;100.00;55844.97;5134752;27;20228;-71
2022/03/11 09:14:44;;;;;;;20.03;18.73;;;;;;;-141.02;100.00;55844.97;5134335;27;20232;-70
2022/03/11 09:17:13;;;;;;;21.63;20.20;;;;;;;-141.02;100.00;55844.97;5134608;27;20241;-71
2022/03/11 09:19:42;;;;;;;23.50;21.57;;;;;;;-141.02;100.00;55844.97;5134154;27;20315;-71
2022/03/11 09:22:09;;;;;;;23.93;22.33;;;;;;;-141.02;100.00;55844.97;5135457;27;20695;-71
2022/03/11 09:24:36;;;;;;;23.00;21.37;;;;;;;-141.02;100.00;55844.97;5134479;27;20231;-71
2022/03/11 09:27:03;;;;;;;24.47;22.67;;;;;;;-141.02;100.00;55844.97;5134149;27;20201;-71
2022/03/11 09:29:30;;;;;;;22.47;20.67;;;;;;;-141.02;100.00;55844.97;5134144;27;20246;-71
2022/03/11 09:31:57;;;;;;;21.43;20.13;;;;;;;-141.02;100.00;55844.97;5134276;27;20231;-72
2022/03/11 09:34:26;;;;;;;21.87;20.40;;;;;;;-141.02;100.00;55844.97;5133967;27;20429;-71
2022/03/11 09:36:54;;;;;;;21.90;20.40;;;;;;;-141.02;100.00;55844.97;5134393;27;20245;-71
2022/03/11 09:39:21;;;;;;;21.43;20.23;;;;;;;-141.02;100.00;55844.97;5133115;27;20295;-72
2022/03/11 09:41:49;;;;;;;20.00;18.90;;;;;;;-141.02;100.00;55844.97;5134182;27;20192;-72
2022/03/11 09:44:17;;;;;;;22.53;20.97;;;;;;;-141.02;100.00;55844.97;5134089;27;20272;-72
2022/03/11 09:46:46;;;;;;;21.77;20.37;;;;;;;-141.02;100.00;55844.97;5134659;27;20193;-72
2022/03/11 09:49:14;;;;;;;25.10;23.23;;;;;;;-141.02;100.00;55844.97;5133951;27;20295;-71
2022/03/11 09:51:45;;;;;;;24.53;22.40;;;;;;;-141.02;100.00;55844.97;5133682;27;20192;-74
2022/03/11 09:54:13;;;;;;;22.60;21.00;;;;;;;-141.02;100.00;55844.97;5134019;27;20559;-72
2022/03/11 09:56:42;;;;;;;23.30;21.50;;;;;;;-141.02;100.00;55844.97;5133567;27;20226;-72
2022/03/11 09:59:10;;;;;;;20.27;19.07;;;;;;;-141.02;100.00;55844.97;5133782;27;20311;-71
2022/03/11 10:01:37;;;;;;;21.57;20.27;;;;;;;-141.02;100.00;55844.97;5133829;27;20188;-71
2022/03/11 10:04:04;;;;;;;21.83;20.50;;;;;;;-141.02;100.00;55844.97;5133466;27;20620;-72
2022/03/11 10:06:39;;;;;;;24.93;23.00;;;;;;;-141.02;100.00;55844.97;5133710;27;20196;-72
2022/03/11 10:09:08;;;;;;;21.73;20.43;;;;;;;-141.02;100.00;55844.97;5133334;27;20196;-71
2022/03/11 10:11:37;;;;;;;22.90;21.23;;;;;;;-141.02;100.00;55844.97;5133572;27;20207;-71
2022/03/11 10:14:08;;;;;;;23.33;21.93;;;;;;;-141.02;100.00;55844.97;5133616;27;20200;-71
2022/03/11 10:16:36;;;;;;;25.47;23.67;;;;;;;-141.02;100.00;55844.97;5133233;27;20200;-71
2022/03/11 10:19:06;;;;;;;21.67;20.37;;;;;;;-141.02;100.00;55844.97;5134268;27;20236;-72
2022/03/11 10:21:35;;;;;;;27.03;25.03;;;;;;;-141.02;100.00;55844.97;5133462;27;20218;-72
2022/03/11 10:24:05;;;;;;;23.67;22.23;;;;;;;-141.02;100.00;55844.97;5133446;27;20731;-72
2022/03/11 10:26:39;;;;;;;21.83;20.53;;;;;;;-141.02;100.00;55844.97;5133377;27;20276;-71
2022/03/11 10:29:08;;;;;;;24.63;22.87;;;;;;;-141.02;100.00;55844.97;5133342;27;20184;-71
2022/03/11 10:31:39;;;;;;;24.83;22.73;;;;;;;-141.02;100.00;55844.97;5133465;27;20363;-71
2022/03/11 10:34:17;;;;;;;22.10;20.80;;;;;;;-141.02;100.00;55844.97;5133316;27;20227;-72
2022/03/11 10:36:53;;;;;;;20.80;19.70;;;;;;;-141.02;100.00;55844.97;5133018;27;20220;-71
2022/03/11 10:39:22;;;;;;;22.67;21.07;;;;;;;-141.02;100.00;55844.97;5132785;28;20271;-71
2022/03/11 10:41:53;;;;;;;21.33;19.93;;;;;;;-141.02;100.00;55844.97;5133287;27;20193;-71
2022/03/11 10:44:26;;;;;;;21.03;19.83;;;;;;;-141.02;100.00;55844.97;5133001;28;20185;-71
2022/03/11 10:46:54;;;;;;;21.10;19.90;;;;;;;-141.02;100.00;55844.97;5133270;27;20185;-71
2022/03/11 10:49:26;;;;;;;22.33;20.80;;;;;;;-141.02;100.00;55844.97;5133112;28;20199;-72
2022/03/11 10:51:55;;;;;;;22.00;20.80;;;;;;;-141.02;100.00;55844.97;5135654;27;20239;-71
2022/03/11 10:54:26;;;;;;;24.10;22.60;;;;;;;-141.02;100.00;55844.97;5137061;27;20200;-72
2022/03/11 10:56:55;;;;;;;22.33;21.03;;;;;;;-141.02;100.00;55844.97;5137293;27;20592;-71